Time;durP1;ratioP1;P1;durP2;ratioP2;P2;SDS_P1;SDS_P2;PMS_P1;PMS_P2;Temp;Humidity;BMP_temperature;BMP_pressure;BME280_temperature;BME280_humidity;BME280_pressure;Samples;Min_cycle;Max_cycle;Signal;HPM_P1;HPM_P2
2021/12/07 00:01:05;;;;;;;86.68;38.65;;;;;;;5.60;92.08;98789.66;5071255;28;20040;-20
2021/12/07 00:03:30;;;;;;;91.43;40.28;;;;;;;6.12;89.75;98792.00;5071290;28;20531;-20
2021/12/07 00:05:56;;;;;;;94.95;38.92;;;;;;;6.07;89.89;98789.22;5071462;28;20033;-20
2021/12/07 00:08:22;;;;;;;82.78;38.25;;;;;;;6.30;90.00;98754.13;5071291;28;20028;-20
2021/12/07 00:10:50;;;;;;;119.10;52.55;;;;;;;6.08;89.52;98781.06;5071340;28;20028;-25
2021/12/07 00:13:15;;;;;;;90.45;42.67;;;;;;;5.94;89.96;98774.25;5071443;28;20246;-20
2021/12/07 00:15:41;;;;;;;118.50;53.47;;;;;;;6.42;87.30;98782.28;5070836;28;20522;-19
2021/12/07 00:18:06;;;;;;;117.78;54.50;;;;;;;6.62;86.67;98770.63;5053363;28;20063;-20
2021/12/07 00:20:32;;;;;;;92.57;42.20;;;;;;;5.97;88.68;98769.38;5071094;28;20111;-20
2021/12/07 00:23:00;;;;;;;90.72;38.80;;;;;;;6.31;87.64;98769.78;5071161;28;20032;-20
2021/12/07 00:25:25;;;;;;;139.98;62.97;;;;;;;6.33;87.87;98778.31;5070829;28;20062;-22
2021/12/07 00:27:51;;;;;;;97.65;45.97;;;;;;;6.34;88.13;98779.13;5070925;28;20035;-21
2021/12/07 00:30:17;;;;;;;150.98;64.13;;;;;;;6.47;88.00;98767.56;5071368;28;20036;-20
2021/12/07 00:32:49;;;;;;;95.78;44.90;;;;;;;6.32;88.29;98766.13;5070834;28;20051;-20
2021/12/07 00:37:40;;;;;;;98.43;41.63;;;;;;;6.51;86.77;98760.78;5070920;28;20040;-20
2021/12/07 00:40:07;;;;;;;200.57;84.38;;;;;;;6.42;87.90;98755.78;5070909;28;20028;-20
2021/12/07 00:42:33;;;;;;;118.93;53.60;;;;;;;5.89;89.86;98751.13;5070649;28;20722;-20
2021/12/07 00:44:59;;;;;;;97.10;42.03;;;;;;;6.08;90.00;98769.66;5070824;28;20043;-20
2021/12/07 00:47:25;;;;;;;107.53;49.08;;;;;;;6.53;87.72;98756.06;5070252;28;20082;-20
2021/12/07 00:49:50;;;;;;;110.80;52.35;;;;;;;6.49;87.89;98736.38;5070671;28;20025;-20
2021/12/07 00:52:16;;;;;;;94.88;44.33;;;;;;;6.20;88.72;98736.13;5070360;28;20032;-20
2021/12/07 00:54:41;;;;;;;91.13;39.97;;;;;;;6.18;89.38;98723.09;5070633;28;20032;-20
2021/12/07 00:57:07;;;;;;;83.63;41.75;;;;;;;6.36;88.61;98729.41;5070282;28;20028;-20
2021/12/07 00:59:32;;;;;;;78.95;36.17;;;;;;;6.36;88.70;98724.13;5070229;28;20032;-20
2021/12/07 01:01:58;;;;;;;77.05;37.15;;;;;;;6.94;86.06;98717.34;5070186;28;20035;-20
2021/12/07 01:04:24;;;;;;;79.15;38.08;;;;;;;7.08;84.34;98694.91;5070745;28;20040;-20
2021/12/07 01:25:47;;;;;;;105.97;47.75;;;;;;;6.59;88.65;98665.09;5070340;28;20071;-20
2021/12/07 01:28:27;;;;;;;93.38;43.92;;;;;;;6.36;88.36;98653.44;5070029;28;20044;-20
2021/12/07 01:31:09;;;;;;;93.72;45.15;;;;;;;6.37;88.77;98648.94;5070031;28;20043;-20
2021/12/07 01:37:25;;;;;;;119.40;52.85;;;;;;;6.77;87.00;98670.31;5069980;28;20139;-20
2021/12/07 01:42:54;;;;;;;94.15;41.80;;;;;;;6.15;89.00;98659.22;5069740;28;20094;-20
2021/12/07 01:47:38;;;;;;;68.60;33.75;;;;;;;5.31;92.31;98643.09;5069474;28;20035;-21
2021/12/07 02:00:36;;;;;;;65.30;27.98;;;;;;;7.79;96.28;98631.16;5052459;28;20041;-19
2021/12/07 02:03:01;;;;;;;31.25;13.43;;;;;;;8.40;100.00;98626.97;5069411;28;20476;-20
2021/12/07 02:05:27;;;;;;;22.05;9.75;;;;;;;8.81;100.00;98611.72;5069662;28;20103;-20
2021/12/07 02:07:52;;;;;;;28.08;7.65;;;;;;;9.20;100.00;98609.06;5069224;28;20097;-20
2021/12/07 02:10:22;;;;;;;19.15;8.25;;;;;;;9.50;100.00;98617.69;5069199;28;20074;-20
2021/12/07 02:12:50;;;;;;;23.63;9.02;;;;;;;9.73;100.00;98606.00;5069107;28;20492;-20
2021/12/07 02:15:20;;;;;;;15.63;6.20;;;;;;;9.90;100.00;98603.25;5051167;28;20056;-20
2021/12/07 02:17:46;;;;;;;20.90;6.45;;;;;;;9.94;99.61;98591.06;5069414;28;20032;-25
2021/12/07 02:20:11;;;;;;;11.85;4.15;;;;;;;10.17;98.12;98600.59;5069305;28;20815;-21
2021/12/07 02:22:37;;;;;;;16.50;4.60;;;;;;;10.37;96.78;98600.81;5068820;28;20028;-20
2021/12/07 02:25:06;;;;;;;11.75;3.40;;;;;;;10.43;96.32;98591.78;5051088;28;20025;-21
2021/12/07 02:27:32;;;;;;;10.50;3.25;;;;;;;10.63;95.01;98609.81;5068913;28;20029;-20
2021/12/07 02:29:58;;;;;;;12.52;2.90;;;;;;;10.71;93.12;98583.75;5069112;28;20377;-20
2021/12/07 02:32:23;;;;;;;12.40;3.35;;;;;;;10.54;90.84;98542.06;5068738;28;20545;-20
2021/12/07 02:34:59;;;;;;;16.30;3.72;;;;;;;10.89;93.01;98595.88;5051093;28;20122;-20
2021/12/07 02:37:25;;;;;;;11.13;2.70;;;;;;;10.73;93.95;98582.44;5068538;28;20474;-20
2021/12/07 02:39:50;;;;;;;11.80;2.63;;;;;;;10.81;93.99;98595.28;5068583;28;20032;-21
2021/12/07 02:42:16;;;;;;;11.43;2.75;;;;;;;10.94;92.78;98587.91;5068743;28;20090;-21
2021/12/07 02:44:41;;;;;;;14.98;2.72;;;;;;;11.00;92.25;98597.56;5068941;28;20042;-20
2021/12/07 02:47:07;;;;;;;9.90;2.72;;;;;;;11.01;91.92;98599.16;5068519;28;20032;-20
2021/12/07 02:49:32;;;;;;;11.38;2.63;;;;;;;11.09;92.01;98603.19;5068396;28;20039;-20
2021/12/07 02:51:58;;;;;;;13.75;3.45;;;;;;;11.15;91.91;98608.31;5068186;28;20033;-20
2021/12/07 02:54:23;;;;;;;13.07;3.13;;;;;;;11.10;92.51;98602.94;5068346;28;20060;-20
2021/12/07 02:56:50;;;;;;;10.65;2.70;;;;;;;10.96;93.24;98593.78;5068247;28;20052;-19
2021/12/07 02:59:17;;;;;;;12.43;2.77;;;;;;;11.01;93.03;98601.81;5068139;28;20036;-20
2021/12/07 03:01:48;;;;;;;13.15;3.42;;;;;;;10.85;94.10;98579.59;5050420;28;20036;-20
2021/12/07 03:04:23;;;;;;;11.15;2.80;;;;;;;10.85;94.11;98604.41;5068177;28;20033;-20
2021/12/07 03:28:19;;;;;;;11.82;4.22;;;;;;;10.29;100.00;98601.25;5067840;28;20040;-19
2021/12/07 03:30:45;;;;;;;16.90;4.72;;;;;;;10.31;100.00;98620.47;5067982;28;20029;-19
2021/12/07 03:33:10;;;;;;;26.50;9.85;;;;;;;10.22;100.00;98613.97;5067054;28;20041;-20
2021/12/07 03:35:36;;;;;;;15.10;4.97;;;;;;;10.24;100.00;98618.00;5049432;28;20408;-20
2021/12/07 03:38:02;;;;;;;20.27;8.10;;;;;;;10.26;100.00;98615.09;5067795;28;20040;-20
2021/12/07 03:40:28;;;;;;;12.23;5.07;;;;;;;10.29;100.00;98627.88;5067754;28;20373;-20
2021/12/07 03:42:53;;;;;;;13.85;4.68;;;;;;;10.28;100.00;98618.28;5067672;28;20041;-20
2021/12/07 03:45:19;;;;;;;11.02;3.95;;;;;;;10.27;100.00;98614.00;5049608;28;20032;-20
2021/12/07 03:47:44;;;;;;;10.70;4.18;;;;;;;10.23;100.00;98631.56;5067796;28;20540;-20
2021/12/07 03:50:10;;;;;;;11.77;3.80;;;;;;;10.39;100.00;98622.69;5067723;28;20028;-21
2021/12/07 03:52:36;;;;;;;10.35;3.35;;;;;;;10.27;100.00;98614.00;5068468;28;20395;-20
2021/12/07 03:55:02;;;;;;;11.13;3.67;;;;;;;10.31;100.00;98622.34;5067665;28;20847;-20
2021/12/07 03:57:27;;;;;;;16.23;3.65;;;;;;;10.33;100.00;98613.03;5067255;28;20115;-20
2021/12/07 03:59:53;;;;;;;12.25;3.70;;;;;;;10.36;99.94;98609.06;5067483;28;20122;-20
2021/12/07 04:02:18;;;;;;;12.82;3.33;;;;;;;10.39;100.00;98624.53;5067867;28;20036;-20
2021/12/07 04:04:44;;;;;;;8.48;2.92;;;;;;;10.25;100.00;98621.44;5067827;28;20036;-20
2021/12/07 04:07:09;;;;;;;10.60;4.68;;;;;;;10.25;100.00;98624.13;5067518;28;20036;-19
2021/12/07 04:09:35;;;;;;;13.10;4.18;;;;;;;10.47;100.00;98634.75;5067331;28;20029;-20
2021/12/07 04:12:00;;;;;;;14.98;5.10;;;;;;;10.41;100.00;98625.91;5067554;28;20031;-20
2021/12/07 04:14:26;;;;;;;19.77;8.02;;;;;;;10.28;100.00;98623.63;5067370;28;20493;-20
2021/12/07 04:16:51;;;;;;;23.10;10.75;;;;;;;10.33;100.00;98631.69;5066235;28;20056;-20
2021/12/07 04:19:17;;;;;;;16.52;5.43;;;;;;;10.43;100.00;98631.78;5067227;28;20032;-20
2021/12/07 04:21:42;;;;;;;14.05;5.82;;;;;;;10.41;100.00;98635.75;5067427;28;20055;-20
2021/12/07 04:24:08;;;;;;;18.55;7.07;;;;;;;10.31;100.00;98611.69;5067236;28;20503;-20
2021/12/07 04:26:34;;;;;;;14.82;5.47;;;;;;;10.39;100.00;98641.34;5067119;28;20033;-22
2021/12/07 04:28:59;;;;;;;18.50;6.95;;;;;;;10.44;100.00;98638.72;5066376;28;20068;-21
2021/12/07 04:31:25;;;;;;;14.15;5.68;;;;;;;10.51;100.00;98627.84;5066897;28;20040;-20
2021/12/07 04:33:50;;;;;;;16.60;4.93;;;;;;;10.37;100.00;98630.13;5067170;28;20484;-20
2021/12/07 04:36:16;;;;;;;17.60;6.75;;;;;;;10.33;100.00;98617.56;5067144;28;20101;-20
2021/12/07 04:38:42;;;;;;;13.98;4.72;;;;;;;10.49;100.00;98629.16;5067503;28;20493;-20
2021/12/07 04:41:08;;;;;;;18.10;6.07;;;;;;;10.55;100.00;98636.16;5067273;28;20028;-20
2021/12/07 04:43:34;;;;;;;15.20;4.75;;;;;;;10.42;100.00;98619.53;5066984;28;20036;-20
2021/12/07 04:46:19;;;;;;;18.05;6.05;;;;;;;10.54;100.00;98629.19;5069072;28;20020;-20
2021/12/07 04:59:25;;;;;;;19.27;7.90;;;;;;;11.34;97.47;98658.56;5070471;28;20043;-20
2021/12/07 05:01:50;;;;;;;25.27;10.90;;;;;;;11.37;95.63;98668.75;5070547;28;20032;-20
2021/12/07 05:04:21;;;;;;;21.60;10.15;;;;;;;11.40;95.24;98670.88;5070479;28;20028;-20
2021/12/07 05:06:50;;;;;;;26.35;11.85;;;;;;;11.24;96.65;98654.00;5070622;28;20140;-20
2021/12/07 05:09:52;;;;;;;15.40;8.45;;;;;;;11.17;96.23;98667.53;5070286;28;20496;-21
2021/12/07 05:12:25;;;;;;;16.88;8.57;;;;;;;10.80;97.84;98656.88;5070108;28;20035;-20
2021/12/07 05:14:59;;;;;;;14.20;8.18;;;;;;;10.63;100.00;98684.47;5070214;28;20067;-21
2021/12/07 05:39:28;;;;;;;67.22;41.78;;;;;;;10.38;100.00;98589.09;5054467;28;20036;-20
2021/12/07 05:41:54;;;;;;;45.75;31.58;;;;;;;10.18;100.00;98580.91;5069669;28;20407;-20
2021/12/07 05:44:19;;;;;;;63.97;51.47;;;;;;;10.19;100.00;98577.16;5052103;28;20121;-20
2021/12/07 05:46:45;;;;;;;67.90;54.80;;;;;;;10.29;100.00;98601.25;5069452;28;20036;-21
2021/12/07 05:49:10;;;;;;;61.22;49.83;;;;;;;10.39;100.00;98601.34;5069704;28;20033;-21
2021/12/07 05:51:36;;;;;;;38.95;28.20;;;;;;;10.31;100.00;98607.16;5069520;28;20047;-20
2021/12/07 05:54:01;;;;;;;106.85;58.00;;;;;;;10.27;100.00;98609.47;5069614;28;20792;-20
2021/12/07 05:56:27;;;;;;;68.10;37.35;;;;;;;10.23;100.00;98600.38;5068629;28;20036;-20
2021/12/07 05:58:52;;;;;;;90.32;46.15;;;;;;;10.32;100.00;98598.13;5069667;28;20044;-20
2021/12/07 06:01:18;;;;;;;192.25;94.20;;;;;;;10.33;100.00;98590.91;5069092;28;20480;-20
2021/12/07 06:03:43;;;;;;;83.45;46.17;;;;;;;10.33;100.00;98586.38;5069569;28;20036;-20
2021/12/07 06:06:08;;;;;;;125.65;50.53;;;;;;;10.29;100.00;98582.59;5069386;28;20058;-20
2021/12/07 06:08:34;;;;;;;74.18;30.63;;;;;;;10.45;100.00;98589.69;5069473;28;20446;-20
2021/12/07 06:10:59;;;;;;;40.45;18.77;;;;;;;10.33;100.00;98573.06;5068945;28;20040;-20
2021/12/07 06:13:25;;;;;;;107.28;46.03;;;;;;;10.39;100.00;98577.38;5068793;28;20097;-20
2021/12/07 06:15:50;;;;;;;24.10;12.25;;;;;;;10.25;100.00;98582.28;5069016;28;20492;-20
2021/12/07 06:18:16;;;;;;;28.50;20.98;;;;;;;10.20;100.00;98578.78;5069260;28;20385;-20
2021/12/07 06:20:41;;;;;;;15.00;10.85;;;;;;;10.24;100.00;98578.03;5069320;28;20032;-20
2021/12/07 06:23:09;;;;;;;18.60;11.88;;;;;;;10.28;100.00;98583.66;5069085;28;20111;-20
2021/12/07 06:25:34;;;;;;;14.55;9.68;;;;;;;10.20;100.00;98558.28;5068750;28;20029;-21
2021/12/07 06:28:00;;;;;;;33.45;21.30;;;;;;;10.35;100.00;98576.28;5069170;28;20557;-20
2021/12/07 06:30:25;;;;;;;18.73;12.80;;;;;;;10.31;100.00;98564.50;5068681;28;20040;-20
2021/12/07 06:32:50;;;;;;;29.35;15.38;;;;;;;10.34;100.00;98563.19;5068902;28;20397;-20
2021/12/07 06:35:16;;;;;;;23.25;12.73;;;;;;;10.34;100.00;98558.69;5068624;28;20028;-22
2021/12/07 06:37:42;;;;;;;29.65;19.45;;;;;;;10.45;100.00;98549.72;5068824;28;20025;-19
2021/12/07 06:40:10;;;;;;;29.33;19.27;;;;;;;10.49;100.00;98559.88;5068697;28;20036;-21
2021/12/07 06:42:38;;;;;;;35.83;20.77;;;;;;;10.55;100.00;98545.53;5068883;28;20036;-20
2021/12/07 06:45:07;;;;;;;58.72;35.75;;;;;;;10.59;100.00;98543.97;5068377;28;20037;-20
2021/12/07 06:47:33;;;;;;;52.92;32.00;;;;;;;10.64;99.62;98530.66;5068427;28;20472;-20
2021/12/07 06:49:58;;;;;;;49.17;29.42;;;;;;;10.64;98.98;98535.97;5068679;28;20036;-20
2021/12/07 06:52:24;;;;;;;33.85;19.17;;;;;;;10.67;100.00;98556.81;5068263;28;20786;-20
2021/12/07 06:54:49;;;;;;;35.00;19.30;;;;;;;10.54;100.00;98530.56;5068535;28;20044;-20
2021/12/07 06:57:15;;;;;;;42.45;24.00;;;;;;;10.60;100.00;98532.22;5068209;28;20476;-20
2021/12/07 06:59:40;;;;;;;17.02;10.85;;;;;;;10.78;98.44;98534.47;5068184;28;20040;-20
2021/12/07 07:02:06;;;;;;;53.78;31.02;;;;;;;10.59;98.07;98527.97;5068255;28;20029;-20
2021/12/07 07:04:31;;;;;;;64.13;33.28;;;;;;;10.70;98.04;98532.28;5068189;28;20055;-20
2021/12/07 07:06:57;;;;;;;88.45;35.15;;;;;;;10.83;97.60;98533.72;5068281;28;20025;-20
2021/12/07 07:09:22;;;;;;;256.13;111.15;;;;;;;10.92;97.04;98531.34;5066993;28;20032;-20
2021/12/07 07:11:48;;;;;;;149.43;71.57;;;;;;;10.69;97.38;98532.56;5068114;28;20086;-20
2021/12/07 07:14:15;;;;;;;38.72;22.25;;;;;;;10.71;96.95;98544.56;5067946;28;20489;-20
2021/12/07 07:16:41;;;;;;;50.75;26.73;;;;;;;10.65;96.70;98542.94;5067978;28;20037;-20
2021/12/07 07:19:07;;;;;;;68.78;37.13;;;;;;;10.60;96.43;98535.72;5068376;28;20048;-20
2021/12/07 07:21:32;;;;;;;85.03;43.45;;;;;;;10.45;96.66;98541.72;5067956;28;20040;-20
2021/12/07 07:23:57;;;;;;;47.50;24.95;;;;;;;10.41;95.87;98545.94;5067721;28;20552;-20
2021/12/07 07:26:23;;;;;;;33.75;19.38;;;;;;;10.41;95.59;98540.63;5068165;28;20025;-20
2021/12/07 07:28:48;;;;;;;31.52;17.27;;;;;;;10.39;95.52;98534.75;5049703;28;20039;-20
2021/12/07 07:31:14;;;;;;;10.88;4.82;;;;;;;10.22;95.50;98524.19;5068046;28;20025;-20
2021/12/07 07:33:39;;;;;;;14.95;7.07;;;;;;;10.31;94.81;98526.41;5067664;28;20063;-20
2021/12/07 07:36:05;;;;;;;13.05;4.45;;;;;;;10.45;93.92;98543.59;5067704;28;20575;-20
2021/12/07 07:38:31;;;;;;;15.40;9.45;;;;;;;10.49;93.88;98549.22;5067536;28;20028;-20
2021/12/07 07:40:56;;;;;;;11.15;3.60;;;;;;;10.60;92.93;98551.69;5067807;28;20089;-20
2021/12/07 07:43:21;;;;;;;9.15;2.65;;;;;;;10.58;92.32;98547.66;5067683;28;20044;-20
2021/12/07 07:45:49;;;;;;;11.50;3.88;;;;;;;10.52;92.47;98535.34;5067513;28;20077;-20
2021/12/07 07:48:15;;;;;;;8.10;2.00;;;;;;;10.57;92.53;98540.75;5067558;28;20476;-20
2021/12/07 07:50:41;;;;;;;7.65;2.20;;;;;;;10.73;92.05;98563.78;5067440;28;20082;-20
2021/12/07 07:53:07;;;;;;;16.52;5.25;;;;;;;10.94;89.87;98550.56;5067733;28;20480;-20
2021/12/07 07:55:33;;;;;;;13.57;9.35;;;;;;;10.89;90.93;98542.53;5067406;28;20021;-20
2021/12/07 07:57:59;;;;;;;11.95;5.07;;;;;;;10.95;90.51;98545.00;5067377;28;20807;-21
2021/12/07 08:00:24;;;;;;;13.13;5.88;;;;;;;10.83;92.27;98529.19;5067815;28;20029;-20
2021/12/07 08:02:50;;;;;;;10.88;5.18;;;;;;;10.89;92.14;98563.88;5067773;28;20468;-20
2021/12/07 08:05:15;;;;;;;12.65;6.53;;;;;;;10.90;92.24;98570.81;5067428;28;20446;-20
2021/12/07 08:07:41;;;;;;;10.88;4.88;;;;;;;10.82;92.30;98570.22;5067326;28;20462;-20
2021/12/07 08:10:07;;;;;;;18.83;7.90;;;;;;;10.97;92.94;98587.38;5067705;28;20477;-20
2021/12/07 08:12:33;;;;;;;13.80;8.65;;;;;;;10.92;93.20;98574.03;5067528;28;20090;-20
2021/12/07 08:14:58;;;;;;;12.65;6.15;;;;;;;11.00;93.93;98603.69;5067411;28;20056;-20
2021/12/07 08:17:24;;;;;;;33.58;17.90;;;;;;;11.02;94.04;98580.22;5067140;28;20029;-20
2021/12/07 08:19:49;;;;;;;63.13;34.17;;;;;;;11.03;94.36;98597.03;5068597;28;20032;-20
2021/12/07 08:22:14;;;;;;;30.08;16.90;;;;;;;11.03;94.76;98605.84;5071073;28;20025;-20
2021/12/07 08:24:40;;;;;;;37.83;24.00;;;;;;;10.99;93.29;98594.09;5071365;28;20071;-20
2021/12/07 08:27:05;;;;;;;17.88;10.10;;;;;;;11.08;92.55;98605.06;5071179;28;20027;-20
2021/12/07 08:29:31;;;;;;;14.38;6.45;;;;;;;11.08;91.75;98591.72;5070930;28;20036;-20
2021/12/07 08:31:56;;;;;;;34.50;19.98;;;;;;;11.17;91.43;98587.50;5071185;28;20109;-20
2021/12/07 08:34:22;;;;;;;11.38;5.15;;;;;;;11.15;91.56;98584.28;5071070;28;20036;-20
2021/12/07 08:36:47;;;;;;;36.28;19.88;;;;;;;11.22;90.57;98592.88;5071162;28;20035;-20
2021/12/07 08:39:13;;;;;;;10.48;4.13;;;;;;;11.19;90.51;98568.56;5069687;28;20036;-19
2021/12/07 08:41:38;;;;;;;22.13;13.18;;;;;;;11.39;90.54;98578.53;5070768;28;20033;-21
2021/12/07 08:44:04;;;;;;;19.40;14.05;;;;;;;11.49;88.79;98580.47;5071015;28;20033;-20
2021/12/07 08:46:29;;;;;;;18.40;7.85;;;;;;;11.45;88.87;98562.28;5070747;28;20029;-21
2021/12/07 08:48:55;;;;;;;24.27;14.35;;;;;;;11.63;89.49;98577.03;5070726;28;20058;-20
2021/12/07 08:51:20;;;;;;;30.35;20.38;;;;;;;11.63;88.97;98577.03;5070482;28;20082;-20
2021/12/07 08:53:53;;;;;;;29.23;19.13;;;;;;;11.63;89.67;98571.69;5070860;28;20090;-20
2021/12/07 09:01:48;;;;;;;20.27;12.60;;;;;;;11.66;90.91;98557.81;5070477;28;20027;-20
2021/12/07 09:04:17;;;;;;;21.98;13.02;;;;;;;11.63;92.43;98538.84;5070606;28;20029;-20
2021/12/07 09:06:43;;;;;;;29.90;19.77;;;;;;;11.68;93.40;98538.06;5070235;28;20392;-20
2021/12/07 09:09:09;;;;;;;19.13;11.57;;;;;;;11.55;94.10;98518.81;5052721;28;20036;-20
2021/12/07 09:11:34;;;;;;;17.10;9.82;;;;;;;11.64;94.29;98521.75;5070013;28;20472;-20
2021/12/07 09:14:00;;;;;;;17.02;10.68;;;;;;;11.76;93.46;98530.31;5070267;28;20120;-20
2021/12/07 09:16:25;;;;;;;21.20;11.30;;;;;;;11.77;92.09;98528.44;5070045;28;20097;-20
2021/12/07 09:18:51;;;;;;;22.75;12.90;;;;;;;11.72;92.11;98515.91;5070322;28;20029;-20
2021/12/07 09:21:16;;;;;;;21.20;13.70;;;;;;;11.84;92.71;98523.66;5069889;28;20416;-22
2021/12/07 09:23:42;;;;;;;37.42;26.77;;;;;;;11.80;92.31;98520.72;5070347;28;20036;-20
2021/12/07 09:26:14;;;;;;;30.10;18.63;;;;;;;11.84;90.52;98516.44;5070125;28;20416;-20
2021/12/07 09:28:41;;;;;;;17.88;8.93;;;;;;;11.90;90.60;98503.94;5050780;28;20052;-21
2021/12/07 09:31:08;;;;;;;30.63;17.00;;;;;;;12.07;90.29;98530.41;5033615;28;20055;-21
2021/12/07 09:33:34;;;;;;;37.83;21.55;;;;;;;12.09;91.15;98528.25;5070138;28;20109;-20
2021/12/07 09:35:59;;;;;;;33.55;17.38;;;;;;;12.10;90.86;98513.84;5069781;28;20066;-20
2021/12/07 09:38:26;;;;;;;38.90;20.95;;;;;;;11.89;91.30;98513.03;5069770;28;20032;-20
2021/12/07 09:40:52;;;;;;;28.35;20.08;;;;;;;11.98;91.94;98511.44;5070088;28;20032;-21
2021/12/07 09:43:18;;;;;;;20.42;12.88;;;;;;;11.92;92.38;98496.47;5069861;28;20094;-20
2021/12/07 09:45:43;;;;;;;18.73;9.23;;;;;;;11.91;91.81;98500.22;5069659;28;20416;-20
2021/12/07 09:48:10;;;;;;;27.65;15.93;;;;;;;11.97;91.29;98499.16;5069526;28;20455;-20
2021/12/07 09:50:36;;;;;;;25.98;14.13;;;;;;;11.88;90.93;98491.91;5069550;28;20078;-20
2021/12/07 09:53:03;;;;;;;25.17;14.75;;;;;;;11.87;91.11;98491.09;5069757;28;20025;-20
2021/12/07 09:55:29;;;;;;;26.52;13.43;;;;;;;11.79;91.92;98471.06;5069182;28;20016;-20
2021/12/07 09:57:55;;;;;;;43.30;23.75;;;;;;;11.70;92.85;98450.47;5069231;28;20035;-20
2021/12/07 10:00:22;;;;;;;27.73;14.13;;;;;;;11.71;92.77;98462.75;5069377;28;20110;-20
2021/12/07 10:02:50;;;;;;;25.58;14.23;;;;;;;11.83;92.39;98463.31;5069451;28;20032;-20
2021/12/07 10:05:17;;;;;;;;;;;;;;;12.02;91.76;98463.63;5069727;28;20072;-21
2021/12/07 10:07:43;;;;;;;22.80;12.10;;;;;;;11.95;91.93;98463.88;5069214;28;19916;-20
2021/12/07 10:10:10;;;;;;;24.20;12.02;;;;;;;12.01;92.43;98464.66;5069416;28;20033;-20
2021/12/07 10:12:43;;;;;;;33.77;18.47;;;;;;;11.84;92.44;98440.88;5051043;28;20506;-20
2021/12/07 10:15:09;;;;;;;24.13;13.85;;;;;;;11.87;93.19;98437.69;5047446;28;20060;-20
2021/12/07 10:17:42;;;;;;;30.80;15.43;;;;;;;12.02;92.21;98448.38;5049081;28;20037;-20
2021/12/07 10:20:22;;;;;;;24.92;13.32;;;;;;;12.09;91.57;98452.66;5049231;28;20033;-20
2021/12/07 10:22:50;;;;;;;28.23;15.63;;;;;;;12.14;91.35;98444.66;5049198;28;20405;-20
2021/12/07 10:25:26;;;;;;;29.95;19.58;;;;;;;12.34;91.36;98439.28;5047634;28;20070;-20
2021/12/07 10:27:52;;;;;;;20.45;11.75;;;;;;;12.26;89.87;98447.84;5049091;28;20037;-21
2021/12/07 10:30:19;;;;;;;62.95;32.35;;;;;;;12.26;90.45;98448.63;5048850;28;20102;-19
2021/12/07 10:32:59;;;;;;;53.22;24.63;;;;;;;12.35;90.12;98438.19;5048879;28;20025;-20
2021/12/07 10:35:33;;;;;;;137.57;62.05;;;;;;;12.55;89.47;98448.03;5048365;28;20052;-21
2021/12/07 10:38:15;;;;;;;57.13;25.10;;;;;;;12.69;88.44;98444.78;5047227;28;20033;-20
2021/12/07 10:40:56;;;;;;;165.68;75.93;;;;;;;12.82;89.08;98450.38;5048617;28;20249;-20
2021/12/07 10:43:43;;;;;;;116.35;57.75;;;;;;;12.78;89.08;98440.50;5047942;28;20408;-20
2021/12/07 10:46:52;;;;;;;26.50;12.47;;;;;;;12.82;89.13;98441.53;5048667;28;20477;-20
2021/12/07 10:49:18;;;;;;;71.57;38.08;;;;;;;12.99;89.82;98427.81;4986382;28;20088;-20
2021/12/07 10:52:06;;;;;;;84.28;49.20;;;;;;;12.96;87.94;98429.19;5039476;28;20553;-20
2021/12/07 10:54:39;;;;;;;;;;;;;;;12.66;87.85;98420.19;5049135;28;20040;-20
2021/12/07 10:57:05;;;;;;;47.10;29.00;;;;;;;12.83;88.73;98424.41;5048382;28;19916;-21
2021/12/07 10:59:32;;;;;;;36.85;21.35;;;;;;;12.97;87.40;98427.28;5048107;28;20069;-20
2021/12/07 11:01:58;;;;;;;36.80;24.25;;;;;;;13.11;86.30;98425.63;5048288;28;20029;-21
2021/12/07 11:04:29;;;;;;;48.97;29.20;;;;;;;13.06;86.36;98418.44;5048216;28;20108;-20
2021/12/07 11:07:15;;;;;;;33.83;15.57;;;;;;;12.93;85.61;98419.00;5048340;28;20029;-20
2021/12/07 11:09:45;;;;;;;14.02;5.03;;;;;;;12.60;86.63;98404.44;5048419;28;20044;-20
2021/12/07 11:12:12;;;;;;;18.58;9.50;;;;;;;12.66;86.50;98419.38;5048336;28;20036;-20
2021/12/07 11:14:41;;;;;;;14.88;7.00;;;;;;;12.86;85.64;98415.84;5054667;28;20491;-20
2021/12/07 11:17:07;;;;;;;17.10;8.38;;;;;;;12.82;84.34;98388.84;5067871;28;20476;-20
2021/12/07 11:19:33;;;;;;;20.65;8.98;;;;;;;12.62;84.68;98415.66;5067929;28;20033;-20
2021/12/07 11:21:58;;;;;;;12.25;5.57;;;;;;;12.68;85.16;98421.81;5068096;28;20032;-20
2021/12/07 11:24:34;;;;;;;42.50;24.45;;;;;;;12.63;84.91;98417.28;5033345;28;20465;-20
2021/12/07 11:30:03;;;;;;;13.98;4.28;;;;;;;12.25;87.17;98411.47;5068222;28;20035;-20
2021/12/07 11:32:28;;;;;;;10.07;3.50;;;;;;;12.49;86.93;98408.22;5068030;28;20029;-20
2021/12/07 11:34:54;;;;;;;13.20;5.75;;;;;;;12.45;86.40;98424.78;5067888;28;20039;-20
2021/12/07 11:37:22;;;;;;;27.52;16.10;;;;;;;12.80;85.51;98422.28;5067636;28;20024;-20
2021/12/07 11:39:56;;;;;;;;;;;;;;;13.18;83.98;98425.34;5068224;28;20602;-20
2021/12/07 11:42:35;;;;;;;22.10;9.38;;;;;;;13.21;83.42;98425.56;5067753;28;20373;-20
2021/12/07 11:45:18;;;;;;;17.30;9.68;;;;;;;12.76;81.83;98423.91;5067805;28;20032;-20
2021/12/07 11:47:48;;;;;;;17.90;11.55;;;;;;;12.03;86.16;98428.63;5067674;28;20031;-20
2021/12/07 11:50:43;;;;;;;16.42;9.00;;;;;;;12.04;84.82;98427.53;5067646;28;20098;-21
2021/12/07 11:53:14;;;;;;;16.17;10.80;;;;;;;11.71;84.83;98433.38;5060695;28;20044;-21
2021/12/07 11:55:43;;;;;;;16.48;8.70;;;;;;;11.74;84.63;98416.84;5070367;28;20078;-20
2021/12/07 11:58:09;;;;;;;13.73;7.18;;;;;;;11.33;86.21;98420.25;5071923;28;20041;-20
2021/12/07 12:00:40;;;;;;;14.82;7.05;;;;;;;10.74;88.59;98412.59;5071991;28;20032;-24
2021/12/07 12:03:07;;;;;;;15.93;7.50;;;;;;;10.49;88.61;98421.28;5071589;28;20036;-20
2021/12/07 12:05:34;;;;;;;19.15;9.32;;;;;;;10.31;90.39;98419.84;5071409;28;20032;-20
2021/12/07 12:08:01;;;;;;;17.33;11.07;;;;;;;10.68;88.25;98419.75;5071671;28;20044;-20
2021/12/07 12:10:27;;;;;;;16.80;8.30;;;;;;;10.90;87.29;98418.78;5054121;28;20028;-20
2021/12/07 12:12:56;;;;;;;13.00;7.10;;;;;;;11.07;86.09;98432.72;5071273;28;20033;-20
2021/12/07 12:15:56;;;;;;;27.15;14.23;;;;;;;11.10;87.02;98429.53;5053058;28;20052;-20
2021/12/07 12:18:58;;;;;;;14.70;8.98;;;;;;;10.58;87.23;98425.88;5053436;28;20048;-20
2021/12/07 12:21:30;;;;;;;27.02;13.63;;;;;;;10.67;86.62;98423.50;5071174;28;20021;-20
2021/12/07 12:24:07;;;;;;;37.40;14.63;;;;;;;10.69;86.01;98413.38;5071371;28;20403;-21
2021/12/07 12:26:34;;;;;;;34.15;14.50;;;;;;;10.83;84.48;98413.72;5071266;28;20024;-20
2021/12/07 12:29:00;;;;;;;21.23;9.70;;;;;;;10.12;86.57;98404.25;5071146;28;20043;-21
2021/12/07 12:31:45;;;;;;;24.48;11.32;;;;;;;9.93;88.00;98403.84;5053080;28;20025;-20
2021/12/07 12:34:16;;;;;;;30.40;16.27;;;;;;;9.73;90.24;98407.16;5071153;28;20143;-20
2021/12/07 12:36:53;;;;;;;36.88;18.55;;;;;;;9.67;89.80;98388.75;5070997;28;20033;-20
2021/12/07 12:39:18;;;;;;;26.77;17.17;;;;;;;9.72;90.73;98416.19;5054448;28;20028;-20
2021/12/07 12:41:44;;;;;;;33.00;17.65;;;;;;;9.67;89.42;98405.50;5052943;28;20821;-20
2021/12/07 12:44:11;;;;;;;34.25;17.85;;;;;;;9.68;89.94;98379.69;5070873;28;20566;-20
2021/12/07 12:46:37;;;;;;;51.33;25.70;;;;;;;9.74;89.15;98406.09;5070414;28;20040;-20
2021/12/07 12:49:06;;;;;;;30.08;16.15;;;;;;;9.70;89.81;98409.50;5070568;28;20691;-20
2021/12/07 12:51:32;;;;;;;23.25;13.65;;;;;;;9.76;88.82;98397.84;5070255;28;20048;-20
2021/12/07 12:53:58;;;;;;;17.40;9.57;;;;;;;9.52;86.62;98414.16;5052569;28;20025;-20
2021/12/07 12:56:30;;;;;;;18.33;9.85;;;;;;;9.27;86.87;98411.25;5070582;28;20477;-20
2021/12/07 12:58:58;;;;;;;17.80;8.95;;;;;;;9.50;85.86;98415.44;5070799;28;20036;-20
2021/12/07 13:01:28;;;;;;;12.93;7.32;;;;;;;9.15;84.85;98404.19;5052398;28;20035;-20
2021/12/07 13:04:09;;;;;;;13.32;8.07;;;;;;;8.73;83.49;98412.78;5070507;28;20028;-20
2021/12/07 13:06:38;;;;;;;10.43;5.28;;;;;;;8.38;84.13;98411.25;5070227;28;20496;-21